Time;durP1;ratioP1;P1;durP2;ratioP2;P2;SDS_P1;SDS_P2;PMS_P1;PMS_P2;Temp;Humidity;BMP_temperature;BMP_pressure;BME280_temperature;BME280_humidity;BME280_pressure;Samples;Min_cycle;Max_cycle;Signal;HPM_P1;HPM_P2
2023/09/14 00:01:27;;;;;;;;;;;10.50;64.50;;;;;;4084111;29;20389;-83
2023/09/14 00:03:28;;;;;;;;;;;10.50;64.60;;;;;;4085945;29;20428;-82
2023/09/14 00:05:29;;;;;;;;;;;10.60;64.70;;;;;;4102458;28;19915;-82
2023/09/14 00:07:32;;;;;;;;;;;10.50;64.70;;;;;;4081110;28;19914;-82
2023/09/14 00:09:32;;;;;;;;;;;10.50;64.50;;;;;;4080672;29;19938;-84
2023/09/14 00:11:53;;;;;;;;;;;10.50;64.50;;;;;;4078580;29;19925;-82
2023/09/14 00:13:53;;;;;;;;;;;10.40;64.50;;;;;;4082385;29;20137;-82
2023/09/14 00:16:14;;;;;;;;;;;10.50;64.70;;;;;;4082346;29;19919;-83
2023/09/14 00:18:34;;;;;;;;;;;10.40;64.80;;;;;;4084501;29;19915;-82
2023/09/14 00:20:57;;;;;;;;;;;10.40;64.60;;;;;;4080147;29;19926;-82
2023/09/14 00:23:17;;;;;;;;;;;10.30;64.50;;;;;;4079169;29;20059;-82
2023/09/14 00:25:38;;;;;;;;;;;10.30;65.40;;;;;;4083892;29;19914;-82
2023/09/14 00:27:59;;;;;;;;;;;10.30;64.70;;;;;;4083569;29;19931;-82
2023/09/14 00:30:20;;;;;;;;;;;10.20;64.70;;;;;;4083779;29;19927;-83
2023/09/14 00:32:42;;;;;;;;;;;10.20;64.80;;;;;;4080945;29;19923;-83
2023/09/14 00:35:02;;;;;;;;;;;10.20;65.00;;;;;;4077298;29;19930;-82
2023/09/14 00:37:04;;;;;;;;;;;10.20;65.20;;;;;;4083449;29;19911;-82
2023/09/14 00:39:06;;;;;;;;;;;10.20;65.20;;;;;;4081978;29;19919;-82
2023/09/14 00:41:06;;;;;;;;;;;10.10;65.20;;;;;;4084227;29;19918;-83
2023/09/14 00:43:07;;;;;;;;;;;10.10;65.20;;;;;;4081847;29;19918;-82
2023/09/14 00:45:08;;;;;;;;;;;10.10;65.20;;;;;;4095350;28;19914;-82
2023/09/14 00:47:09;;;;;;;;;;;10.10;65.20;;;;;;4086638;28;20572;-82
2023/09/14 00:49:09;;;;;;;;;;;10.10;65.20;;;;;;4093822;28;19922;-81
2023/09/14 00:51:27;;;;;;;;;;;10.10;65.10;;;;;;4081738;29;19922;-81
2023/09/14 00:53:28;;;;;;;;;;;10.00;64.80;;;;;;4092939;28;19956;-82
2023/09/14 00:55:31;;;;;;;;;;;10.00;64.70;;;;;;4088012;28;19927;-83
2023/09/14 00:57:48;;;;;;;;;;;10.10;64.70;;;;;;4064350;29;19924;-82
2023/09/14 00:59:49;;;;;;;;;;;9.90;64.60;;;;;;4081451;29;19915;-82
2023/09/14 01:02:10;;;;;;;;;;;10.00;64.60;;;;;;4077889;29;19958;-82
2023/09/14 01:04:31;;;;;;;;;;;9.90;64.60;;;;;;4072164;29;19926;-82
2023/09/14 01:06:32;;;;;;;;;;;9.80;64.70;;;;;;4076699;29;20293;-82
2023/09/14 01:08:33;;;;;;;;;;;9.80;64.80;;;;;;4077871;28;19918;-82
2023/09/14 01:10:54;;;;;;;;;;;9.80;65.00;;;;;;4079457;29;19918;-81
2023/09/14 01:13:29;;;;;;;;;;;9.70;65.10;;;;;;4077863;29;19922;-81
2023/09/14 01:15:52;;;;;;;;;;;9.70;65.10;;;;;;4090583;28;19954;-82
2023/09/14 01:18:21;;;;;;;;;;;9.70;65.30;;;;;;4080082;29;19995;-81
2023/09/14 01:20:42;;;;;;;;;;;9.70;65.40;;;;;;4083387;29;19915;-81
2023/09/14 01:23:18;;;;;;;;;;;9.70;65.50;;;;;;4074697;29;19970;-81
2023/09/14 01:25:43;;;;;;;;;;;9.70;65.60;;;;;;4079617;29;19930;-82
2023/09/14 01:28:11;;;;;;;;;;;9.60;65.70;;;;;;4079697;29;19923;-81
2023/09/14 01:30:31;;;;;;;;;;;9.60;65.80;;;;;;4080756;29;19918;-81
2023/09/14 01:32:32;;;;;;;;;;;9.60;65.80;;;;;;4079240;29;20155;-81
2023/09/14 01:34:32;;;;;;;;;;;9.60;65.90;;;;;;4079330;29;19915;-81
2023/09/14 01:36:36;;;;;;;;;;;9.70;66.10;;;;;;4080813;29;19919;-81
2023/09/14 01:38:37;;;;;;;;;;;9.60;66.10;;;;;;4079325;29;19961;-81
2023/09/14 01:40:38;;;;;;;;;;;9.60;66.20;;;;;;4107100;28;19918;-81
2023/09/14 01:42:39;;;;;;;;;;;9.60;66.20;;;;;;4109915;28;20547;-80
2023/09/14 01:44:40;;;;;;;;;;;9.60;66.20;;;;;;4086884;29;19919;-81
2023/09/14 01:46:41;;;;;;;;;;;9.60;66.40;;;;;;4082584;29;19921;-81
2023/09/14 01:48:43;;;;;;;;;;;9.50;66.40;;;;;;4080926;29;19922;-82
2023/09/14 01:50:43;;;;;;;;;;;9.50;66.40;;;;;;4083770;29;20006;-82
2023/09/14 01:52:44;;;;;;;;;;;9.50;66.60;;;;;;4084454;29;19981;-81
2023/09/14 01:54:44;;;;;;;;;;;9.50;66.60;;;;;;4081075;29;19927;-82
2023/09/14 01:56:45;;;;;;;;;;;9.50;66.70;;;;;;4078574;29;19931;-82
2023/09/14 01:58:45;;;;;;;;;;;9.50;66.70;;;;;;4078418;29;19938;-82
2023/09/14 02:00:46;;;;;;;;;;;9.50;66.80;;;;;;4078940;29;20719;-81
2023/09/14 02:02:46;;;;;;;;;;;9.50;66.80;;;;;;4083164;29;19930;-81
2023/09/14 02:04:47;;;;;;;;;;;9.50;66.90;;;;;;4080219;29;20345;-82
2023/09/14 02:06:48;;;;;;;;;;;9.50;66.90;;;;;;4084010;29;19915;-82
2023/09/14 02:08:48;;;;;;;;;;;9.40;66.80;;;;;;4078099;29;19922;-81
2023/09/14 02:10:49;;;;;;;;;;;9.40;66.90;;;;;;4077614;29;20482;-81
2023/09/14 02:12:50;;;;;;;;;;;9.30;67.60;;;;;;4082915;29;20014;-82
2023/09/14 02:14:51;;;;;;;;;;;9.50;67.00;;;;;;4095022;28;19993;-82
2023/09/14 02:16:51;;;;;;;;;;;9.40;67.00;;;;;;4080056;29;20439;-82
2023/09/14 02:18:52;;;;;;;;;;;9.50;67.20;;;;;;4076769;29;19922;-82
2023/09/14 02:20:52;;;;;;;;;;;9.40;67.10;;;;;;4076129;29;19922;-81
2023/09/14 02:22:53;;;;;;;;;;;9.40;67.10;;;;;;4080957;29;19962;-82
2023/09/14 02:24:54;;;;;;;;;;;9.40;67.10;;;;;;4095490;28;20033;-82
2023/09/14 02:26:55;;;;;;;;;;;9.40;67.00;;;;;;4096070;28;20455;-81
2023/09/14 02:28:55;;;;;;;;;;;9.40;67.00;;;;;;4079858;29;19919;-81
2023/09/14 02:30:56;;;;;;;;;;;9.30;66.90;;;;;;4078238;29;19915;-82
2023/09/14 02:32:56;;;;;;;;;;;9.30;66.90;;;;;;4095508;28;19914;-83
2023/09/14 02:34:57;;;;;;;;;;;9.30;67.10;;;;;;4083194;29;19923;-81
2023/09/14 02:36:57;;;;;;;;;;;9.20;67.10;;;;;;4077458;29;19919;-81
2023/09/14 02:38:58;;;;;;;;;;;9.30;67.20;;;;;;4079268;29;19925;-82
2023/09/14 02:40:58;;;;;;;;;;;9.20;67.20;;;;;;4092817;28;19914;-81
2023/09/14 02:42:59;;;;;;;;;;;9.30;67.30;;;;;;4064107;29;20017;-82
2023/09/14 02:44:59;;;;;;;;;;;9.20;67.30;;;;;;4087005;29;19926;-81
2023/09/14 02:47:00;;;;;;;;;;;9.20;67.30;;;;;;4088320;29;19915;-81
2023/09/14 02:49:01;;;;;;;;;;;9.20;67.30;;;;;;4081638;29;20297;-82
2023/09/14 02:51:02;;;;;;;;;;;9.20;67.30;;;;;;4075948;29;20005;-81
2023/09/14 02:53:02;;;;;;;;;;;9.20;67.20;;;;;;4088098;28;19922;-81
2023/09/14 02:55:03;;;;;;;;;;;9.10;67.20;;;;;;4074425;29;19922;-81
2023/09/14 02:57:04;;;;;;;;;;;9.10;67.30;;;;;;4078900;29;19970;-82
2023/09/14 02:59:05;;;;;;;;;;;9.10;67.30;;;;;;4077998;29;19925;-82
2023/09/14 03:01:09;;;;;;;;;;;9.10;67.30;;;;;;4077225;29;19956;-82
2023/09/14 03:03:09;;;;;;;;;;;9.10;67.40;;;;;;4074824;29;19966;-81
2023/09/14 03:05:11;;;;;;;;;;;9.00;67.20;;;;;;4072201;28;19915;-81
2023/09/14 03:07:11;;;;;;;;;;;9.00;67.20;;;;;;4094469;28;19922;-82
2023/09/14 03:09:12;;;;;;;;;;;9.00;67.20;;;;;;4080329;29;19923;-81
2023/09/14 03:11:13;;;;;;;;;;;9.00;67.10;;;;;;4080041;29;19919;-81
2023/09/14 03:13:13;;;;;;;;;;;8.90;67.20;;;;;;4081805;29;20206;-82
2023/09/14 03:15:14;;;;;;;;;;;8.90;67.20;;;;;;4066574;29;19919;-81
2023/09/14 03:17:15;;;;;;;;;;;8.90;67.30;;;;;;4085282;29;20005;-81
2023/09/14 03:19:15;;;;;;;;;;;8.80;67.20;;;;;;4085887;29;20380;-81
2023/09/14 03:21:26;;;;;;;;;;;8.90;67.40;;;;;;4096432;28;19922;-81
2023/09/14 03:23:26;;;;;;;;;;;8.80;67.40;;;;;;4081240;28;19941;-82
2023/09/14 03:25:27;;;;;;;;;;;8.80;67.40;;;;;;4113927;28;19927;-81
2023/09/14 03:27:28;;;;;;;;;;;8.90;67.50;;;;;;4099759;28;19919;-81
2023/09/14 03:29:28;;;;;;;;;;;8.70;67.40;;;;;;4082064;29;19919;-81
2023/09/14 03:31:29;;;;;;;;;;;8.70;67.40;;;;;;4081349;29;19987;-82
2023/09/14 03:33:30;;;;;;;;;;;8.70;67.50;;;;;;4062177;29;20326;-82
2023/09/14 03:35:30;;;;;;;;;;;8.70;67.50;;;;;;4081560;29;19923;-82
2023/09/14 03:37:31;;;;;;;;;;;8.70;67.60;;;;;;4081121;29;19946;-82
2023/09/14 03:39:31;;;;;;;;;;;8.60;67.50;;;;;;4078525;29;20014;-82
2023/09/14 03:41:32;;;;;;;;;;;8.60;67.70;;;;;;4070335;29;19915;-82
2023/09/14 03:43:33;;;;;;;;;;;8.60;67.60;;;;;;4084980;29;20202;-83
2023/09/14 03:45:34;;;;;;;;;;;8.60;67.70;;;;;;4095885;28;20481;-83
2023/09/14 03:47:35;;;;;;;;;;;8.60;67.70;;;;;;4084046;29;19969;-82
2023/09/14 03:49:35;;;;;;;;;;;8.50;67.80;;;;;;4085277;29;19923;-82
2023/09/14 03:51:39;;;;;;;;;;;8.50;67.80;;;;;;4080850;29;19918;-82
2023/09/14 03:53:39;;;;;;;;;;;8.50;67.70;;;;;;4098088;28;20282;-82
2023/09/14 03:55:40;;;;;;;;;;;8.50;67.60;;;;;;4080364;29;19919;-82
2023/09/14 03:57:46;;;;;;;;;;;8.40;67.60;;;;;;4078675;29;19989;-82
2023/09/14 03:59:47;;;;;;;;;;;8.40;67.80;;;;;;4078822;29;19923;-82
2023/09/14 04:01:48;;;;;;;;;;;8.40;67.70;;;;;;4097879;28;19937;-82
2023/09/14 04:03:49;;;;;;;;;;;8.40;67.70;;;;;;4083781;29;20470;-82
2023/09/14 04:05:51;;;;;;;;;;;8.30;67.80;;;;;;4084716;29;20510;-82
2023/09/14 04:08:12;;;;;;;;;;;8.30;67.80;;;;;;4093149;29;19915;-82
2023/09/14 04:10:32;;;;;;;;;;;8.30;67.90;;;;;;4081416;29;19910;-83
2023/09/14 04:13:13;;;;;;;;;;;8.20;67.60;;;;;;4077183;29;20419;-82
2023/09/14 04:15:33;;;;;;;;;;;8.30;67.60;;;;;;4090078;28;20005;-82
2023/09/14 04:17:54;;;;;;;;;;;8.20;67.40;;;;;;4082978;29;19945;-83
2023/09/14 04:20:15;;;;;;;;;;;8.10;67.30;;;;;;4093901;28;20143;-82
2023/09/14 04:22:38;;;;;;;;;;;8.10;67.40;;;;;;4097628;29;19946;-81
2023/09/14 04:25:07;;;;;;;;;;;8.10;67.50;;;;;;4090488;28;19926;-82
2023/09/14 04:27:28;;;;;;;;;;;8.10;67.90;;;;;;4088448;28;20082;-82
2023/09/14 04:29:49;;;;;;;;;;;8.00;67.90;;;;;;4071070;29;20698;-81
2023/09/14 04:32:10;;;;;;;;;;;8.00;68.00;;;;;;4079223;29;19954;-81
2023/09/14 04:34:31;;;;;;;;;;;8.00;68.10;;;;;;4093396;28;19922;-82
2023/09/14 04:36:51;;;;;;;;;;;8.00;68.20;;;;;;4081069;29;19911;-81
2023/09/14 04:38:52;;;;;;;;;;;7.90;68.00;;;;;;4090670;28;19937;-81
2023/09/14 04:40:53;;;;;;;;;;;7.90;68.20;;;;;;4081168;29;19911;-81
2023/09/14 04:42:53;;;;;;;;;;;7.90;68.00;;;;;;4065672;29;20468;-82
2023/09/14 04:44:54;;;;;;;;;;;7.90;67.90;;;;;;4079737;29;19962;-81
2023/09/14 04:46:55;;;;;;;;;;;7.90;67.90;;;;;;4079775;29;20388;-81
2023/09/14 04:48:59;;;;;;;;;;;7.80;67.80;;;;;;4075243;29;19927;-84
2023/09/14 04:50:59;;;;;;;;;;;7.80;67.90;;;;;;4078085;29;20404;-81
2023/09/14 04:53:00;;;;;;;;;;;7.80;68.20;;;;;;4079806;29;19974;-81
2023/09/14 04:55:00;;;;;;;;;;;7.80;68.10;;;;;;4078011;29;20002;-81
2023/09/14 04:57:02;;;;;;;;;;;7.80;68.50;;;;;;4079008;29;20355;-80
2023/09/14 04:59:04;;;;;;;;;;;7.80;68.30;;;;;;4063542;29;19915;-81
2023/09/14 05:01:05;;;;;;;;;;;7.80;68.50;;;;;;4081716;29;20416;-81
2023/09/14 05:03:08;;;;;;;;;;;7.80;68.60;;;;;;4079073;29;20167;-81
2023/09/14 05:05:09;;;;;;;;;;;7.70;68.50;;;;;;4081964;29;19931;-81
2023/09/14 05:07:10;;;;;;;;;;;7.70;68.50;;;;;;4076015;29;20151;-83
2023/09/14 05:09:10;;;;;;;;;;;7.70;68.80;;;;;;4078918;29;19933;-81
2023/09/14 05:11:15;;;;;;;;;;;7.70;68.80;;;;;;4075822;29;19922;-82
2023/09/14 05:13:35;;;;;;;;;;;7.70;68.80;;;;;;4069814;29;19923;-85
2023/09/14 05:16:01;;;;;;;;;;;7.70;68.80;;;;;;4058094;29;19934;-85
2023/09/14 05:20:32;;;;;;;;;;;7.70;69.00;;;;;;2248033;26;19933;-83
2023/09/14 05:22:55;;;;;;;;;;;7.80;69.30;;;;;;4108406;28;19977;-83
2023/09/14 05:25:20;;;;;;;;;;;7.70;69.40;;;;;;4106614;28;19949;-83
2023/09/14 05:27:44;;;;;;;;;;;7.70;69.50;;;;;;4111373;28;19918;-83
2023/09/14 05:30:21;;;;;;;;;;;7.80;69.60;;;;;;4097645;28;19988;-83
2023/09/14 05:32:42;;;;;;;;;;;7.80;69.80;;;;;;4091786;28;19965;-83
2023/09/14 05:35:10;;;;;;;;;;;7.80;69.80;;;;;;4098773;28;19926;-83
2023/09/14 05:37:34;;;;;;;;;;;7.90;70.00;;;;;;4101633;28;19919;-83
2023/09/14 05:39:57;;;;;;;;;;;7.90;70.10;;;;;;4090582;29;20379;-83
2023/09/14 05:42:22;;;;;;;;;;;7.90;70.30;;;;;;4102284;28;19937;-83
2023/09/14 05:44:31;;;;;;;;;;;8.00;70.30;;;;;;4087961;29;20049;-83
2023/09/14 05:46:38;;;;;;;;;;;8.00;70.50;;;;;;4089586;28;19978;-82
2023/09/14 05:48:49;;;;;;;;;;;8.00;71.00;;;;;;4102319;28;20468;-83
2023/09/14 05:50:53;;;;;;;;;;;7.90;71.00;;;;;;4076046;29;20001;-84
2023/09/14 05:52:56;;;;;;;;;;;8.20;71.60;;;;;;4092094;29;19958;-83
2023/09/14 05:54:57;;;;;;;;;;;8.20;71.90;;;;;;4075985;29;19915;-83
2023/09/14 05:57:09;;;;;;;;;;;8.30;72.20;;;;;;4076198;29;19962;-83
2023/09/14 05:59:16;;;;;;;;;;;8.30;72.30;;;;;;4088953;29;20356;-84
2023/09/14 06:01:20;;;;;;;;;;;8.50;72.40;;;;;;4093642;28;19922;-84
2023/09/14 06:03:37;;;;;;;;;;;;;;;;;;;;;
2023/09/14 06:05:40;;;;;;;;;;;8.60;73.00;;;;;;4107024;28;20226;-85
2023/09/14 06:07:54;;;;;;;;;;;8.70;73.20;;;;;;4078970;29;19980;-84
2023/09/14 06:10:16;;;;;;;;;;;8.80;73.50;;;;;;4079351;29;19910;-84
2023/09/14 06:12:53;;;;;;;;;;;8.90;73.30;;;;;;4101197;28;20009;-84
2023/09/14 06:14:58;;;;;;;;;;;9.00;73.60;;;;;;4073719;29;20091;-85
2023/09/14 06:17:53;;;;;;;;;;;9.10;73.40;;;;;;4085336;29;19923;-83
2023/09/14 06:20:12;;;;;;;;;;;9.30;73.30;;;;;;4090734;29;19973;-84
2023/09/14 06:22:36;;;;;;;;;;;9.30;73.50;;;;;;4091549;29;19928;-84
2023/09/14 06:25:08;;;;;;;;;;;9.40;73.60;;;;;;4103780;28;19911;-84
2023/09/14 06:27:34;;;;;;;;;;;9.60;73.80;;;;;;4096456;29;19918;-84
2023/09/14 06:30:00;;;;;;;;;;;9.60;73.60;;;;;;4093418;29;19920;-84
2023/09/14 06:32:28;;;;;;;;;;;9.70;73.90;;;;;;4088334;29;19915;-84
2023/09/14 06:34:52;;;;;;;;;;;9.80;74.30;;;;;;4095600;28;19991;-84
2023/09/14 06:37:32;;;;;;;;;;;9.90;74.20;;;;;;4092635;29;19914;-84
2023/09/14 06:39:53;;;;;;;;;;;10.10;74.20;;;;;;4100261;28;19957;-83
2023/09/14 06:42:14;;;;;;;;;;;10.10;74.60;;;;;;4090806;29;20047;-85
2023/09/14 06:44:40;;;;;;;;;;;10.30;74.40;;;;;;4100527;28;20360;-84
2023/09/14 06:46:48;;;;;;;;;;;10.40;74.20;;;;;;4074502;29;19919;-84
2023/09/14 06:51:33;;;;;;;;;;;10.60;74.30;;;;;;4091752;29;19910;-85
2023/09/14 06:53:42;;;;;;;;;;;10.70;74.10;;;;;;4084087;28;19919;-84
2023/09/14 06:55:50;;;;;;;;;;;10.80;74.00;;;;;;4089163;29;19918;-85
2023/09/14 06:58:02;;;;;;;;;;;10.80;74.00;;;;;;4090591;29;19923;-85
2023/09/14 07:00:21;;;;;;;;;;;10.90;73.80;;;;;;4074781;29;19918;-84
2023/09/14 07:02:34;;;;;;;;;;;11.00;73.80;;;;;;4074195;29;19997;-84
2023/09/14 07:04:54;;;;;;;;;;;11.10;73.80;;;;;;4089812;29;20032;-84
2023/09/14 07:06:57;;;;;;;;;;;11.10;73.80;;;;;;4077138;29;20141;-84
2023/09/14 07:09:06;;;;;;;;;;;11.30;74.00;;;;;;4075718;29;19911;-84
2023/09/14 07:11:36;;;;;;;;;;;11.30;74.00;;;;;;4067080;29;19918;-84
2023/09/14 07:13:37;;;;;;;;;;;11.50;74.10;;;;;;4100609;28;20081;-84
2023/09/14 07:15:41;;;;;;;;;;;11.50;74.30;;;;;;4076231;29;19927;-84
2023/09/14 07:17:50;;;;;;;;;;;11.60;74.30;;;;;;4072912;29;19919;-84
2023/09/14 07:20:04;;;;;;;;;;;11.80;74.60;;;;;;4090778;28;20419;-84
2023/09/14 07:22:09;;;;;;;;;;;11.90;74.60;;;;;;4092523;29;19921;-83
2023/09/14 07:24:22;;;;;;;;;;;12.00;74.70;;;;;;4073765;29;19927;-84
2023/09/14 07:26:51;;;;;;;;;;;12.10;74.60;;;;;;4087921;29;19925;-85
2023/09/14 07:29:16;;;;;;;;;;;12.20;74.60;;;;;;4089103;29;20609;-84
2023/09/14 07:31:45;;;;;;;;;;;12.40;74.70;;;;;;4088029;29;20091;-85
2023/09/14 07:34:17;;;;;;;;;;;12.40;74.30;;;;;;4089914;28;19939;-84
2023/09/14 07:36:32;;;;;;;;;;;12.60;74.40;;;;;;4088369;28;19970;-84
2023/09/14 07:38:59;;;;;;;;;;;13.00;74.70;;;;;;4089548;28;19914;-84
2023/09/14 07:41:19;;;;;;;;;;;13.00;74.70;;;;;;4088864;29;19918;-84
2023/09/14 07:43:20;;;;;;;;;;;13.20;74.80;;;;;;4086420;29;20419;-85
2023/09/14 07:45:43;;;;;;;;;;;13.30;75.50;;;;;;4087643;29;19914;-84
2023/09/14 07:48:16;;;;;;;;;;;13.60;75.80;;;;;;4100326;28;19914;-84
2023/09/14 07:50:47;;;;;;;;;;;13.70;75.50;;;;;;4083870;28;19919;-84
2023/09/14 07:53:11;;;;;;;;;;;13.70;75.00;;;;;;4084161;29;19922;-85
2023/09/14 07:55:50;;;;;;;;;;;;;;;;;;;;;
2023/09/14 07:58:14;;;;;;;;;;;14.20;74.40;;;;;;4091264;28;19969;-84
2023/09/14 08:00:38;;;;;;;;;;;14.20;73.60;;;;;;4097100;28;19925;-84
2023/09/14 08:02:59;;;;;;;;;;;14.30;72.90;;;;;;4106262;28;19914;-84
2023/09/14 08:05:03;;;;;;;;;;;14.40;72.50;;;;;;4091662;29;19999;-86
2023/09/14 08:07:03;;;;;;;;;;;14.50;72.20;;;;;;4093276;29;20401;-85
2023/09/14 08:09:25;;;;;;;;;;;14.60;70.70;;;;;;4096347;28;20009;-84
2023/09/14 08:11:34;;;;;;;;;;;14.70;66.20;;;;;;4089926;29;20446;-84
2023/09/14 08:13:38;;;;;;;;;;;14.80;66.30;;;;;;4081134;29;19915;-84
2023/09/14 08:15:51;;;;;;;;;;;14.70;66.70;;;;;;4094292;29;19918;-84
2023/09/14 08:17:52;;;;;;;;;;;15.00;67.00;;;;;;4078837;29;19981;-86
2023/09/14 08:19:53;;;;;;;;;;;15.00;67.40;;;;;;4077649;29;19923;-85
2023/09/14 08:21:53;;;;;;;;;;;15.10;67.60;;;;;;4077890;29;19915;-84
2023/09/14 08:24:02;;;;;;;;;;;15.20;67.40;;;;;;4107485;28;19929;-85
2023/09/14 08:26:07;;;;;;;;;;;15.20;67.00;;;;;;4101825;28;19915;-84
2023/09/14 08:28:17;;;;;;;;;;;15.20;66.70;;;;;;4091301;28;20010;-84
2023/09/14 08:30:27;;;;;;;;;;;15.30;64.30;;;;;;4097564;28;20389;-85
2023/09/14 08:32:28;;;;;;;;;;;15.40;64.50;;;;;;4082340;29;20397;-85
2023/09/14 08:34:32;;;;;;;;;;;15.30;64.10;;;;;;4091106;29;19926;-85
2023/09/14 08:36:32;;;;;;;;;;;15.50;62.60;;;;;;4078115;29;19929;-85
2023/09/14 08:38:33;;;;;;;;;;;15.40;63.60;;;;;;4093479;29;19950;-84
2023/09/14 08:40:36;;;;;;;;;;;15.50;63.20;;;;;;4092525;29;19910;-84
2023/09/14 08:42:37;;;;;;;;;;;15.60;63.90;;;;;;4077728;29;20460;-85
2023/09/14 08:44:40;;;;;;;;;;;15.50;62.90;;;;;;4079336;29;19911;-84
2023/09/14 08:46:41;;;;;;;;;;;15.60;61.60;;;;;;4078830;29;19970;-84
2023/09/14 08:48:45;;;;;;;;;;;15.60;61.00;;;;;;4091606;29;19922;-85
2023/09/14 08:50:47;;;;;;;;;;;15.60;58.60;;;;;;4091429;29;19918;-85
2023/09/14 08:52:48;;;;;;;;;;;15.60;57.00;;;;;;4096188;29;19922;-85
2023/09/14 08:54:50;;;;;;;;;;;15.60;58.30;;;;;;4096529;29;19985;-84
2023/09/14 08:57:11;;;;;;;;;;;15.60;59.20;;;;;;4095072;29;19966;-85
2023/09/14 08:59:32;;;;;;;;;;;15.60;60.00;;;;;;4094886;28;19915;-85
2023/09/14 09:01:57;;;;;;;;;;;15.60;60.50;;;;;;4106455;28;19916;-85
2023/09/14 09:04:01;;;;;;;;;;;15.70;61.20;;;;;;4112664;28;19903;-84
2023/09/14 09:06:21;;;;;;;;;;;15.70;59.40;;;;;;4112789;29;19962;-85
2023/09/14 09:08:45;;;;;;;;;;;15.60;57.70;;;;;;4106721;28;19918;-86
2023/09/14 09:11:07;;;;;;;;;;;15.60;57.60;;;;;;4091732;29;19957;-84
2023/09/14 09:13:34;;;;;;;;;;;15.70;59.50;;;;;;4103500;28;19921;-85
2023/09/14 09:15:58;;;;;;;;;;;15.60;58.70;;;;;;4101637;28;19966;-85
2023/09/14 09:18:18;;;;;;;;;;;15.70;59.60;;;;;;4093082;29;20411;-85
2023/09/14 09:20:40;;;;;;;;;;;15.70;60.10;;;;;;4100252;28;20000;-84
2023/09/14 09:22:43;;;;;;;;;;;15.70;60.70;;;;;;4099758;28;19933;-86
2023/09/14 09:24:50;;;;;;;;;;;15.80;61.60;;;;;;4102750;28;19926;-85
2023/09/14 09:26:51;;;;;;;;;;;15.80;61.70;;;;;;4075174;29;20549;-85
2023/09/14 09:28:51;;;;;;;;;;;15.90;61.70;;;;;;4089810;29;19915;-85
2023/09/14 09:30:53;;;;;;;;;;;15.90;61.70;;;;;;4092713;29;19917;-85
2023/09/14 09:32:57;;;;;;;;;;;16.00;61.60;;;;;;4104510;28;19910;-86
2023/09/14 09:35:14;;;;;;;;;;;16.10;62.10;;;;;;4092661;29;20009;-85
2023/09/14 09:37:15;;;;;;;;;;;16.10;62.30;;;;;;4109387;28;20005;-85
2023/09/14 09:39:15;;;;;;;;;;;16.20;62.20;;;;;;4077160;29;20405;-86
2023/09/14 09:41:16;;;;;;;;;;;16.30;61.80;;;;;;4105407;28;20405;-85
2023/09/14 09:43:18;;;;;;;;;;;16.30;62.20;;;;;;4103057;28;19910;-84
2023/09/14 09:45:25;;;;;;;;;;;16.40;61.10;;;;;;4077640;29;20063;-85
2023/09/14 09:47:26;;;;;;;;;;;16.50;60.40;;;;;;4091086;28;19922;-85
2023/09/14 09:49:33;;;;;;;;;;;16.60;61.20;;;;;;4082727;29;19937;-85
2023/09/14 09:51:34;;;;;;;;;;;16.70;61.90;;;;;;4092680;29;20674;-85
2023/09/14 09:53:35;;;;;;;;;;;16.80;62.20;;;;;;4078761;29;20409;-85
2023/09/14 09:55:37;;;;;;;;;;;16.90;60.80;;;;;;4105216;28;19941;-85
2023/09/14 09:57:47;;;;;;;;;;;17.00;60.30;;;;;;4091096;29;19925;-85
2023/09/14 10:00:13;;;;;;;;;;;17.10;58.50;;;;;;4093057;29;19910;-85
2023/09/14 10:02:13;;;;;;;;;;;17.10;59.00;;;;;;4084351;29;19923;-85
2023/09/14 10:04:16;;;;;;;;;;;17.20;60.30;;;;;;4074802;29;19953;-86
2023/09/14 10:06:43;;;;;;;;;;;17.30;60.50;;;;;;4101089;28;19953;-85
2023/09/14 10:08:51;;;;;;;;;;;17.40;60.60;;;;;;4093564;29;19914;-85
2023/09/14 10:10:52;;;;;;;;;;;17.50;60.40;;;;;;4076729;29;20285;-85
2023/09/14 10:12:53;;;;;;;;;;;17.50;60.80;;;;;;4089339;29;19911;-86
2023/09/14 10:14:55;;;;;;;;;;;17.60;59.60;;;;;;4104338;28;19925;-86
2023/09/14 10:16:57;;;;;;;;;;;17.70;59.10;;;;;;4094381;28;19997;-85
2023/09/14 10:19:18;;;;;;;;;;;17.80;59.30;;;;;;4088096;29;20430;-86
2023/09/14 10:21:21;;;;;;;;;;;17.70;59.10;;;;;;4090131;28;19926;-86
2023/09/14 10:23:42;;;;;;;;;;;17.70;58.50;;;;;;4091035;29;19930;-85
2023/09/14 10:26:03;;;;;;;;;;;17.80;59.00;;;;;;4090480;29;19953;-86
2023/09/14 10:28:14;;;;;;;;;;;17.80;58.40;;;;;;4101309;28;19950;-86
2023/09/14 10:30:35;;;;;;;;;;;17.80;58.50;;;;;;4089096;29;19917;-85
2023/09/14 10:32:57;;;;;;;;;;;17.70;56.90;;;;;;4089108;29;20604;-85
2023/09/14 10:35:17;;;;;;;;;;;17.70;55.20;;;;;;4090870;29;20385;-85
2023/09/14 10:37:42;;;;;;;;;;;17.70;55.60;;;;;;4099511;28;20390;-86
2023/09/14 10:42:50;;;;;;;;;;;17.80;56.90;;;;;;4076543;29;19920;-85
2023/09/14 10:45:11;;;;;;;;;;;17.80;55.60;;;;;;4080303;29;19923;-86
2023/09/14 10:47:36;;;;;;;;;;;17.90;55.90;;;;;;4059985;29;20356;-86
2023/09/14 10:49:57;;;;;;;;;;;17.90;56.60;;;;;;4077375;29;20482;-85
2023/09/14 10:51:59;;;;;;;;;;;18.00;57.00;;;;;;4079598;29;20013;-86
2023/09/14 10:54:00;;;;;;;;;;;18.00;57.90;;;;;;4068589;29;20342;-85
2023/09/14 10:56:02;;;;;;;;;;;18.10;58.00;;;;;;4079194;29;19945;-86
2023/09/14 10:58:03;;;;;;;;;;;18.10;57.40;;;;;;4075770;29;19915;-86
2023/09/14 11:00:10;;;;;;;;;;;18.20;57.70;;;;;;4078530;29;20432;-86
2023/09/14 11:02:11;;;;;;;;;;;18.20;57.40;;;;;;4055708;29;19962;-85
2023/09/14 11:04:21;;;;;;;;;;;18.30;57.70;;;;;;4066127;29;19930;-85
2023/09/14 11:06:44;;;;;;;;;;;18.40;56.90;;;;;;4076979;29;20583;-86
2023/09/14 11:09:05;;;;;;;;;;;18.50;57.30;;;;;;4077868;29;20440;-86
2023/09/14 11:11:37;;;;;;;;;;;18.50;57.10;;;;;;4076163;29;20655;-86
2023/09/14 11:13:58;;;;;;;;;;;18.60;56.80;;;;;;4073632;29;19951;-85
2023/09/14 11:16:25;;;;;;;;;;;18.70;57.00;;;;;;4067053;29;20480;-86
2023/09/14 11:18:52;;;;;;;;;;;18.80;55.70;;;;;;4063271;29;19934;-86
2023/09/14 11:20:53;;;;;;;;;;;18.70;55.80;;;;;;4087544;28;19919;-86
2023/09/14 11:23:14;;;;;;;;;;;18.80;55.50;;;;;;4087833;29;21070;-85
2023/09/14 11:25:36;;;;;;;;;;;18.90;56.20;;;;;;4092129;29;20389;-86
2023/09/14 11:27:57;;;;;;;;;;;18.90;56.10;;;;;;4101181;28;20001;-85
2023/09/14 11:29:58;;;;;;;;;;;19.00;55.30;;;;;;4095784;29;19961;-86
2023/09/14 11:32:22;;;;;;;;;;;19.10;55.80;;;;;;4096167;28;20270;-85
2023/09/14 11:34:44;;;;;;;;;;;19.10;55.50;;;;;;4115559;28;19918;-86
2023/09/14 11:39:15;;;;;;;;;;;19.20;55.80;;;;;;4150003;22;19921;-85
2023/09/14 11:41:45;;;;;;;;;;;19.30;55.60;;;;;;4148426;28;20342;-88
2023/09/14 11:44:09;;;;;;;;;;;19.30;55.20;;;;;;4143371;28;19953;-87
2023/09/14 11:46:31;;;;;;;;;;;19.40;54.20;;;;;;4131186;28;20049;-85
2023/09/14 11:48:52;;;;;;;;;;;19.40;54.40;;;;;;4125211;28;20528;-86
2023/09/14 11:51:13;;;;;;;;;;;19.50;53.30;;;;;;4124168;28;19922;-86
2023/09/14 11:53:37;;;;;;;;;;;19.50;52.30;;;;;;4124228;28;20444;-86
2023/09/14 11:55:58;;;;;;;;;;;19.50;52.40;;;;;;4123699;28;19922;-86
2023/09/14 11:57:58;;;;;;;;;;;19.60;51.90;;;;;;4121325;28;20280;-86
2023/09/14 11:59:59;;;;;;;;;;;19.60;53.70;;;;;;4112031;28;19929;-86
2023/09/14 12:02:01;;;;;;;;;;;19.60;53.90;;;;;;4107140;28;19928;-86
2023/09/14 12:04:06;;;;;;;;;;;19.60;54.10;;;;;;4141586;28;19953;-86
2023/09/14 12:06:07;;;;;;;;;;;19.50;52.70;;;;;;4152442;28;19909;-86
2023/09/14 12:08:09;;;;;;;;;;;19.60;53.90;;;;;;4108854;28;19922;-86
2023/09/14 12:10:17;;;;;;;;;;;19.60;52.90;;;;;;4109350;28;19922;-86
2023/09/14 12:12:25;;;;;;;;;;;19.60;53.20;;;;;;4109683;28;20044;-86
2023/09/14 12:14:38;;;;;;;;;;;19.60;53.40;;;;;;4126263;28;20458;-86
2023/09/14 12:17:01;;;;;;;;;;;19.60;53.40;;;;;;4139432;28;19917;-85
2023/09/14 12:19:22;;;;;;;;;;;19.60;53.00;;;;;;4124516;28;19942;-87
2023/09/14 12:21:43;;;;;;;;;;;19.60;52.90;;;;;;4124671;28;19922;-86
2023/09/14 12:23:49;;;;;;;;;;;19.60;52.90;;;;;;4107785;28;19953;-86
2023/09/14 12:26:14;;;;;;;;;;;19.60;53.00;;;;;;4125277;28;20363;-86
2023/09/14 12:28:35;;;;;;;;;;;19.60;52.20;;;;;;4121610;28;20523;-86
2023/09/14 12:30:56;;;;;;;;;;;19.60;50.60;;;;;;4124637;28;19929;-86
2023/09/14 12:33:17;;;;;;;;;;;19.60;50.50;;;;;;4119287;28;19930;-85
2023/09/14 12:35:41;;;;;;;;;;;19.60;52.30;;;;;;4126320;28;20276;-86
2023/09/14 12:38:05;;;;;;;;;;;19.60;52.70;;;;;;4126923;28;19918;-86
2023/09/14 12:40:25;;;;;;;;;;;19.60;53.40;;;;;;4122288;28;19961;-86
2023/09/14 12:42:49;;;;;;;;;;;19.60;52.70;;;;;;4121718;28;19917;-86
2023/09/14 12:44:52;;;;;;;;;;;19.50;50.90;;;;;;4107975;28;19953;-86
2023/09/14 12:46:53;;;;;;;;;;;19.50;51.50;;;;;;4131619;28;19949;-88
2023/09/14 12:48:59;;;;;;;;;;;19.50;51.90;;;;;;4130247;28;19918;-86
2023/09/14 12:51:02;;;;;;;;;;;19.40;52.10;;;;;;4143096;28;19925;-87
2023/09/14 12:53:07;;;;;;;;;;;19.40;52.40;;;;;;4130920;28;20348;-87
2023/09/14 12:55:16;;;;;;;;;;;19.40;52.20;;;;;;4139725;28;19941;-87
2023/09/14 12:57:17;;;;;;;;;;;19.40;52.30;;;;;;4156886;28;19929;-87